Time;durP1;ratioP1;P1;durP2;ratioP2;P2;SDS_P1;SDS_P2;PMS_P1;PMS_P2;Temp;Humidity;BMP_temperature;BMP_pressure;BME280_temperature;BME280_humidity;BME280_pressure;Samples;Min_cycle;Max_cycle;Signal;HPM_P1;HPM_P2
2022/04/09 00:00:21;;;;;;;7.35;2.13;;;5.20;99.90;;;;;;5133748;27;20187;-56
2022/04/09 00:02:47;;;;;;;3.92;2.17;;;5.20;99.90;;;;;;5133738;27;20207;-54
2022/04/09 00:05:13;;;;;;;4.68;2.10;;;5.20;99.90;;;;;;5133428;27;20164;-55
2022/04/09 00:07:38;;;;;;;8.80;2.97;;;5.20;99.90;;;;;;5133793;27;20176;-55
2022/04/09 00:10:06;;;;;;;7.13;2.90;;;5.20;99.90;;;;;;5133357;27;20168;-56
2022/04/09 00:12:32;;;;;;;7.45;2.97;;;5.20;99.90;;;;;;5133205;27;20287;-55
2022/04/09 00:14:58;;;;;;;7.25;2.70;;;5.20;99.90;;;;;;5133202;27;20643;-55
2022/04/09 00:17:23;;;;;;;9.00;2.60;;;5.20;99.90;;;;;;5133364;27;20164;-55
2022/04/09 00:19:49;;;;;;;8.20;2.72;;;5.10;99.90;;;;;;5133262;27;20168;-55
2022/04/09 00:22:15;;;;;;;7.53;2.80;;;5.10;99.90;;;;;;5133125;27;20189;-55
2022/04/09 00:24:40;;;;;;;9.30;2.65;;;5.10;99.90;;;;;;5133745;27;20172;-55
2022/04/09 00:27:06;;;;;;;7.97;2.75;;;5.10;99.90;;;;;;5132944;27;20574;-55
2022/04/09 00:29:31;;;;;;;10.30;2.83;;;5.10;99.90;;;;;;5133126;27;20251;-56
2022/04/09 00:31:57;;;;;;;10.20;2.70;;;5.20;99.90;;;;;;5132995;27;20226;-55
2022/04/09 00:34:23;;;;;;;8.70;2.60;;;5.10;99.90;;;;;;5133062;27;20175;-56
2022/04/09 00:36:48;;;;;;;6.57;2.50;;;5.10;99.90;;;;;;5133262;27;20247;-55
2022/04/09 00:39:14;;;;;;;9.00;3.10;;;5.00;99.90;;;;;;5133078;27;20167;-55
2022/04/09 00:41:49;;;;;;;6.80;3.42;;;5.00;99.90;;;;;;5133197;27;20531;-56
2022/04/09 00:44:19;;;;;;;6.57;2.42;;;5.00;99.90;;;;;;5133014;27;20164;-55
2022/04/09 00:46:44;;;;;;;11.02;3.13;;;5.00;99.90;;;;;;5132910;27;20200;-55
2022/04/09 00:49:11;;;;;;;6.43;1.92;;;5.00;99.90;;;;;;5132856;27;20195;-55
2022/04/09 00:51:40;;;;;;;14.00;3.03;;;4.90;99.90;;;;;;5133017;27;20698;-55
2022/04/09 00:54:07;;;;;;;12.63;2.65;;;4.90;99.90;;;;;;5133128;27;20176;-55
2022/04/09 00:56:35;;;;;;;10.60;3.40;;;4.90;99.90;;;;;;5132890;27;20197;-54
2022/04/09 00:59:02;;;;;;;7.95;2.38;;;4.90;99.90;;;;;;5132760;27;20246;-55
2022/04/09 01:01:31;;;;;;;9.05;2.97;;;4.90;99.90;;;;;;5132737;27;20156;-56
2022/04/09 01:03:58;;;;;;;9.93;2.80;;;4.90;99.90;;;;;;5132781;27;20160;-55
2022/04/09 01:06:24;;;;;;;8.85;2.90;;;4.80;99.90;;;;;;5132762;27;20297;-53
2022/04/09 01:08:50;;;;;;;19.33;2.80;;;4.80;99.90;;;;;;5133059;27;20197;-56
2022/04/09 01:11:16;;;;;;;8.63;2.47;;;4.70;99.90;;;;;;5132652;27;20679;-56
2022/04/09 01:13:43;;;;;;;7.55;2.47;;;4.80;99.90;;;;;;5132815;27;20255;-53
2022/04/09 01:16:09;;;;;;;10.90;2.60;;;4.80;99.90;;;;;;5133223;27;20233;-51
2022/04/09 01:18:36;;;;;;;8.23;3.08;;;4.80;99.90;;;;;;5132667;27;20164;-50
2022/04/09 01:21:03;;;;;;;8.05;3.00;;;4.80;99.90;;;;;;5132656;27;20261;-55
2022/04/09 01:23:29;;;;;;;8.82;2.67;;;4.80;99.90;;;;;;5132571;27;20177;-52
2022/04/09 01:25:57;;;;;;;5.32;2.80;;;4.70;99.90;;;;;;5132873;27;20175;-52
2022/04/09 01:28:23;;;;;;;9.32;2.78;;;4.70;99.90;;;;;;5132541;27;20167;-56
2022/04/09 01:30:48;;;;;;;6.93;2.10;;;4.70;99.90;;;;;;5132512;27;20531;-56
2022/04/09 01:33:15;;;;;;;12.05;3.20;;;4.60;99.90;;;;;;5132511;27;20561;-55
2022/04/09 01:35:41;;;;;;;7.22;2.35;;;4.70;99.90;;;;;;5133051;27;20164;-56
2022/04/09 01:38:07;;;;;;;9.75;2.33;;;4.60;99.90;;;;;;5132814;27;20255;-56
2022/04/09 01:40:32;;;;;;;6.13;1.80;;;4.60;99.90;;;;;;5135733;27;20251;-56
2022/04/09 01:42:58;;;;;;;16.90;3.03;;;4.60;99.90;;;;;;5136032;27;20223;-55
2022/04/09 01:45:24;;;;;;;5.13;2.42;;;4.70;99.90;;;;;;5136246;27;20200;-55
2022/04/09 01:47:49;;;;;;;5.93;2.17;;;4.70;99.90;;;;;;5136360;27;20164;-55
2022/04/09 01:50:15;;;;;;;12.55;2.80;;;4.70;99.90;;;;;;5136078;27;20175;-55
2022/04/09 01:52:41;;;;;;;4.50;2.30;;;4.70;99.90;;;;;;5136639;27;20284;-52
2022/04/09 01:55:07;;;;;;;8.50;2.33;;;4.70;99.90;;;;;;5135971;27;20164;-52
2022/04/09 01:57:36;;;;;;;12.32;3.28;;;4.80;99.90;;;;;;5135987;27;20164;-55
2022/04/09 02:00:05;;;;;;;9.73;2.72;;;4.70;99.90;;;;;;5136105;27;20164;-56
2022/04/09 02:02:31;;;;;;;9.73;2.17;;;4.80;99.90;;;;;;5136044;27;20176;-55
2022/04/09 02:04:57;;;;;;;8.75;2.83;;;4.70;99.90;;;;;;5135829;27;20164;-55
2022/04/09 02:07:22;;;;;;;17.23;3.05;;;4.70;99.90;;;;;;5134510;27;20509;-56
2022/04/09 02:09:48;;;;;;;11.82;2.88;;;4.70;99.90;;;;;;5135881;27;20236;-55
2022/04/09 02:12:14;;;;;;;13.30;3.22;;;4.60;99.90;;;;;;5135584;27;20601;-55
2022/04/09 02:14:39;;;;;;;11.30;3.05;;;4.60;99.90;;;;;;5135895;27;20175;-56
2022/04/09 02:17:05;;;;;;;9.40;3.10;;;4.60;99.90;;;;;;5135459;27;20168;-54
2022/04/09 02:19:31;;;;;;;11.30;2.55;;;4.60;99.90;;;;;;5135654;27;20160;-55
2022/04/09 02:21:56;;;;;;;6.88;2.65;;;4.60;99.90;;;;;;5135681;27;20168;-55
2022/04/09 02:24:22;;;;;;;13.68;3.42;;;4.60;99.90;;;;;;5135718;27;20164;-55
2022/04/09 02:26:47;;;;;;;10.60;3.00;;;4.70;99.90;;;;;;5135342;27;20666;-55
2022/04/09 02:29:12;;;;;;;10.77;3.60;;;4.60;99.90;;;;;;5135322;27;20178;-55
2022/04/09 02:31:38;;;;;;;8.50;2.20;;;4.70;99.90;;;;;;5135421;27;20203;-51
2022/04/09 02:34:05;;;;;;;11.68;2.80;;;4.70;99.90;;;;;;5135168;27;20168;-49
2022/04/09 02:36:32;;;;;;;13.93;2.75;;;4.60;99.90;;;;;;5135476;27;20168;-51
2022/04/09 02:38:58;;;;;;;13.32;2.83;;;4.60;99.90;;;;;;5135372;27;20203;-52
2022/04/09 02:41:24;;;;;;;10.07;2.13;;;4.70;99.90;;;;;;5135195;27;20172;-53
2022/04/09 02:43:49;;;;;;;14.63;3.15;;;4.60;99.90;;;;;;5135077;27;20249;-52
2022/04/09 02:46:16;;;;;;;11.27;2.80;;;4.60;99.90;;;;;;5135268;27;20532;-55
2022/04/09 02:48:42;;;;;;;7.60;2.55;;;4.60;99.90;;;;;;5135185;27;20193;-53
2022/04/09 02:51:07;;;;;;;11.77;3.13;;;4.60;99.90;;;;;;5135086;27;20599;-51
2022/04/09 02:53:33;;;;;;;10.77;3.35;;;4.60;99.90;;;;;;5134824;27;20160;-50
2022/04/09 02:55:58;;;;;;;9.43;3.50;;;4.60;99.90;;;;;;5134679;27;20164;-49
2022/04/09 02:58:24;;;;;;;11.10;2.58;;;4.50;99.90;;;;;;5134667;27;20650;-53
2022/04/09 03:00:49;;;;;;;11.73;3.10;;;4.50;99.90;;;;;;5134743;27;20216;-50
2022/04/09 03:03:15;;;;;;;7.47;3.00;;;4.50;99.90;;;;;;5134617;27;20196;-54
2022/04/09 03:05:40;;;;;;;12.73;3.35;;;4.50;99.90;;;;;;5134927;27;20213;-55
2022/04/09 03:08:06;;;;;;;6.35;2.45;;;4.50;99.90;;;;;;5134782;27;20175;-51
2022/04/09 03:10:32;;;;;;;12.70;3.00;;;4.50;99.90;;;;;;5134405;27;20164;-53
2022/04/09 03:12:58;;;;;;;11.68;3.20;;;4.60;99.90;;;;;;5134289;27;20207;-55
2022/04/09 03:15:23;;;;;;;12.13;3.28;;;4.60;99.90;;;;;;5134672;27;20194;-50
2022/04/09 03:17:49;;;;;;;12.10;4.03;;;4.60;99.90;;;;;;5134535;27;20676;-50
2022/04/09 03:20:15;;;;;;;9.07;3.05;;;4.60;99.90;;;;;;5134373;27;20600;-54
2022/04/09 03:22:44;;;;;;;7.88;3.50;;;4.60;99.90;;;;;;5134597;27;20172;-50
2022/04/09 03:25:11;;;;;;;10.20;3.25;;;4.60;99.90;;;;;;5134796;27;20194;-52
2022/04/09 03:27:37;;;;;;;15.43;3.42;;;4.60;99.90;;;;;;5134403;27;20750;-50
2022/04/09 03:30:03;;;;;;;8.75;3.08;;;4.50;99.90;;;;;;5134096;27;20172;-56
2022/04/09 03:32:28;;;;;;;13.68;3.33;;;4.50;99.90;;;;;;5133950;27;20717;-55
2022/04/09 03:34:54;;;;;;;11.02;3.25;;;4.50;99.90;;;;;;5134044;27;20175;-56
2022/04/09 03:37:20;;;;;;;10.35;3.58;;;4.50;99.90;;;;;;5133967;27;20163;-56
2022/04/09 03:39:46;;;;;;;13.48;3.63;;;4.60;99.90;;;;;;5134047;27;20639;-55
2022/04/09 03:42:11;;;;;;;13.90;3.28;;;4.60;99.90;;;;;;5134004;27;20207;-55
2022/04/09 03:44:37;;;;;;;11.75;3.88;;;4.50;99.90;;;;;;5134130;27;20164;-55
2022/04/09 03:47:05;;;;;;;14.52;3.78;;;4.50;99.90;;;;;;5134084;27;20164;-55
2022/04/09 03:49:31;;;;;;;16.67;3.75;;;4.50;99.90;;;;;;5133723;27;20160;-55
2022/04/09 03:51:57;;;;;;;10.07;3.47;;;4.50;99.90;;;;;;5133588;27;20277;-55
2022/04/09 03:54:24;;;;;;;8.38;3.13;;;4.50;99.90;;;;;;5133596;27;20160;-56
2022/04/09 03:56:49;;;;;;;11.80;3.97;;;4.60;99.90;;;;;;5133584;27;20172;-55
2022/04/09 03:59:16;;;;;;;13.32;3.63;;;4.60;99.90;;;;;;5133577;27;20573;-55
2022/04/09 04:01:46;;;;;;;9.93;3.35;;;4.50;99.90;;;;;;5133152;27;20160;-53
2022/04/09 04:04:12;;;;;;;14.68;3.67;;;4.50;99.90;;;;;;5133792;27;20202;-49
2022/04/09 04:06:37;;;;;;;12.05;3.55;;;4.50;99.90;;;;;;5133659;27;20164;-54
2022/04/09 04:09:03;;;;;;;11.00;3.10;;;4.50;99.90;;;;;;5133400;27;20186;-53
2022/04/09 04:11:29;;;;;;;8.35;3.17;;;4.50;99.90;;;;;;5133295;27;20191;-55
2022/04/09 04:13:55;;;;;;;15.93;3.88;;;4.50;99.90;;;;;;5133300;27;20178;-55
2022/04/09 04:16:20;;;;;;;12.07;3.17;;;4.50;99.90;;;;;;5133228;27;20172;-56
2022/04/09 04:18:46;;;;;;;10.55;3.40;;;4.60;99.90;;;;;;5133233;27;20246;-52
2022/04/09 04:21:12;;;;;;;5.25;2.72;;;4.50;99.90;;;;;;5133500;27;20170;-55
2022/04/09 04:23:37;;;;;;;12.43;3.33;;;4.50;99.90;;;;;;5133479;27;20204;-56
2022/04/09 04:26:03;;;;;;;8.73;3.33;;;4.50;99.90;;;;;;5133435;27;20525;-56
2022/04/09 04:28:29;;;;;;;10.02;3.13;;;4.50;99.90;;;;;;5133151;27;20176;-55
2022/04/09 04:30:55;;;;;;;13.85;3.60;;;4.50;99.90;;;;;;5133143;27;20159;-56
2022/04/09 04:33:21;;;;;;;11.38;2.88;;;4.50;99.90;;;;;;5133008;27;20208;-55
2022/04/09 04:35:46;;;;;;;13.73;3.08;;;4.50;99.90;;;;;;5133101;27;20160;-55
2022/04/09 04:38:12;;;;;;;17.38;3.80;;;4.50;99.90;;;;;;5133260;27;20228;-54
2022/04/09 04:40:38;;;;;;;12.65;3.40;;;4.50;99.90;;;;;;5133389;27;20585;-55
2022/04/09 04:43:03;;;;;;;15.68;3.55;;;4.50;99.90;;;;;;5132824;27;20571;-56
2022/04/09 04:45:32;;;;;;;9.52;3.30;;;4.50;99.90;;;;;;5132960;27;20164;-52
2022/04/09 04:47:58;;;;;;;11.30;3.42;;;4.40;99.90;;;;;;5132933;27;20171;-50
2022/04/09 04:50:24;;;;;;;10.65;3.70;;;4.40;99.90;;;;;;5133200;27;20196;-50
2022/04/09 04:52:50;;;;;;;10.55;2.58;;;4.40;99.90;;;;;;5132903;27;20223;-53
2022/04/09 04:55:16;;;;;;;11.82;3.42;;;4.30;99.90;;;;;;5132906;27;20594;-52
2022/04/09 04:57:44;;;;;;;11.63;3.35;;;4.30;99.90;;;;;;5132928;27;20200;-50
2022/04/09 05:00:11;;;;;;;10.57;2.70;;;4.30;99.90;;;;;;5133247;27;20703;-53
2022/04/09 05:02:36;;;;;;;9.98;3.00;;;4.20;99.90;;;;;;5133077;27;20198;-53
2022/04/09 05:05:03;;;;;;;14.18;4.00;;;4.20;99.90;;;;;;5133074;27;20613;-51
2022/04/09 05:07:45;;;;;;;12.32;3.22;;;4.20;99.90;;;;;;5132993;27;20583;-55
2022/04/09 05:10:18;;;;;;;10.93;2.92;;;4.20;99.90;;;;;;5133334;27;20171;-53
2022/04/09 05:12:44;;;;;;;16.13;4.07;;;4.20;99.90;;;;;;5132697;27;20203;-52
2022/04/09 05:15:12;;;;;;;8.93;3.17;;;4.20;99.90;;;;;;5135819;27;20178;-54
2022/04/09 05:17:38;;;;;;;14.27;3.67;;;3.10;99.90;;;;;;5136942;27;20164;-53
2022/04/09 05:20:12;;;;;;;9.68;3.75;;;4.20;99.90;;;;;;5136654;27;20171;-55
2022/04/09 05:22:41;;;;;;;7.78;3.38;;;4.20;99.90;;;;;;5136999;27;20160;-51
2022/04/09 05:25:07;;;;;;;14.23;3.83;;;4.20;99.90;;;;;;5136547;27;20522;-50
2022/04/09 05:27:33;;;;;;;10.50;3.35;;;4.20;99.90;;;;;;5136584;27;20168;-55
2022/04/09 05:29:58;;;;;;;15.85;3.13;;;4.20;99.90;;;;;;5137901;27;20628;-55
2022/04/09 05:32:24;;;;;;;13.80;3.05;;;4.30;99.90;;;;;;5136542;27;20206;-55
2022/04/09 05:34:50;;;;;;;11.77;3.53;;;4.30;99.90;;;;;;5136504;27;20157;-55
2022/04/09 05:37:16;;;;;;;12.80;3.88;;;4.30;99.90;;;;;;5135753;27;20164;-55
2022/04/09 05:39:42;;;;;;;10.98;3.40;;;4.30;99.90;;;;;;5136273;27;20504;-49
2022/04/09 05:42:09;;;;;;;12.40;3.03;;;4.30;99.90;;;;;;5136276;27;20320;-55
2022/04/09 05:44:34;;;;;;;9.27;2.50;;;4.30;99.90;;;;;;5136276;27;20164;-55
2022/04/09 05:47:00;;;;;;;8.60;2.58;;;4.40;99.90;;;;;;5136291;27;20164;-53
2022/04/09 05:49:26;;;;;;;15.27;3.90;;;4.40;99.90;;;;;;5135869;27;20164;-55
2022/04/09 05:51:52;;;;;;;17.25;4.75;;;4.40;99.90;;;;;;5135875;27;20207;-55
2022/04/09 05:54:17;;;;;;;11.18;2.90;;;4.50;99.90;;;;;;5136069;27;20544;-55
2022/04/09 05:56:43;;;;;;;10.32;3.92;;;4.50;99.90;;;;;;5135430;27;20182;-53
2022/04/09 05:59:08;;;;;;;12.32;3.50;;;4.60;99.90;;;;;;5136043;27;20267;-52
2022/04/09 06:01:34;;;;;;;17.35;3.53;;;4.70;99.90;;;;;;5136000;27;20628;-53
2022/04/09 06:04:01;;;;;;;9.18;3.25;;;4.70;99.90;;;;;;5135456;27;20168;-51
2022/04/09 06:06:27;;;;;;;16.27;3.67;;;4.80;99.90;;;;;;5135718;27;20569;-55
2022/04/09 06:08:52;;;;;;;18.27;3.88;;;4.90;99.90;;;;;;5135781;27;20620;-54
2022/04/09 06:11:18;;;;;;;21.35;4.20;;;4.90;99.90;;;;;;5135611;27;20168;-54
2022/04/09 06:13:43;;;;;;;12.68;2.80;;;4.90;99.90;;;;;;5135640;27;20168;-54
2022/04/09 06:16:10;;;;;;;15.95;4.38;;;4.90;99.90;;;;;;5135913;27;20220;-53
2022/04/09 06:18:38;;;;;;;19.95;4.30;;;5.00;99.90;;;;;;5135367;27;20632;-53
2022/04/09 06:21:04;;;;;;;12.25;3.47;;;5.10;99.90;;;;;;5135682;27;20264;-52
2022/04/09 06:23:29;;;;;;;12.60;3.47;;;5.10;99.90;;;;;;5134846;27;20293;-50
2022/04/09 06:25:55;;;;;;;14.40;4.18;;;5.30;99.90;;;;;;5134778;27;20258;-53
2022/04/09 06:28:20;;;;;;;13.48;3.67;;;5.40;99.90;;;;;;5134967;27;20167;-53
2022/04/09 06:30:46;;;;;;;15.15;4.85;;;5.40;99.90;;;;;;5134740;27;20624;-53
2022/04/09 06:33:11;;;;;;;8.77;3.83;;;5.50;99.90;;;;;;5134677;27;20211;-53
2022/04/09 06:35:37;;;;;;;11.85;3.38;;;5.40;99.90;;;;;;5134852;27;20160;-54
2022/04/09 06:38:02;;;;;;;5.47;2.40;;;5.50;99.90;;;;;;5135255;27;20176;-55
2022/04/09 06:40:28;;;;;;;13.63;3.70;;;5.50;99.90;;;;;;5134148;27;20213;-55
2022/04/09 06:42:54;;;;;;;11.75;4.03;;;5.50;99.90;;;;;;5134753;27;20274;-52
2022/04/09 06:45:20;;;;;;;13.30;4.00;;;5.60;99.90;;;;;;5134990;27;20240;-51
2022/04/09 06:47:47;;;;;;;11.48;3.13;;;5.80;99.90;;;;;;5134606;27;20634;-53
2022/04/09 06:50:13;;;;;;;15.95;4.25;;;5.90;99.90;;;;;;5132766;27;20175;-52
2022/04/09 06:52:40;;;;;;;14.10;3.65;;;5.80;99.90;;;;;;5133363;27;20564;-53
2022/04/09 06:55:09;;;;;;;12.45;4.32;;;6.00;99.90;;;;;;5132909;27;20160;-53
2022/04/09 06:57:35;;;;;;;15.82;4.57;;;6.00;99.90;;;;;;5132631;27;20632;-52
2022/04/09 07:00:03;;;;;;;15.85;3.55;;;6.00;99.90;;;;;;5132669;27;20658;-53
2022/04/09 07:02:29;;;;;;;13.77;3.70;;;6.20;99.90;;;;;;5132634;27;20171;-54
2022/04/09 07:04:54;;;;;;;9.05;4.00;;;6.20;99.90;;;;;;5133939;27;20164;-52
2022/04/09 07:07:24;;;;;;;11.65;3.00;;;6.20;99.90;;;;;;5134555;27;20164;-52
2022/04/09 07:09:50;;;;;;;11.73;3.55;;;6.20;99.90;;;;;;5134774;27;20168;-51
2022/04/09 07:12:16;;;;;;;11.93;3.47;;;6.10;99.90;;;;;;5134419;27;20308;-50
2022/04/09 07:14:43;;;;;;;11.23;3.88;;;6.20;99.90;;;;;;5134645;27;20191;-52
2022/04/09 07:17:08;;;;;;;9.75;3.55;;;6.20;99.90;;;;;;5134707;27;20172;-54
2022/04/09 07:19:34;;;;;;;13.98;3.75;;;6.40;99.90;;;;;;5134295;27;20194;-54
2022/04/09 07:22:00;;;;;;;13.98;3.38;;;6.40;99.90;;;;;;5134291;27;20171;-51
2022/04/09 07:24:26;;;;;;;10.52;2.80;;;6.30;99.90;;;;;;5134174;27;20179;-53
2022/04/09 07:26:51;;;;;;;11.20;3.03;;;6.30;99.90;;;;;;5134210;27;20160;-54
2022/04/09 07:29:17;;;;;;;10.82;2.78;;;6.60;99.90;;;;;;5134051;27;20168;-54
2022/04/09 07:31:43;;;;;;;11.07;2.95;;;6.80;99.90;;;;;;5133921;27;20199;-51
2022/04/09 07:34:09;;;;;;;11.32;3.25;;;6.90;99.90;;;;;;5134260;27;20187;-52
2022/04/09 07:36:35;;;;;;;13.02;3.33;;;6.90;99.90;;;;;;5133483;27;20197;-50
2022/04/09 07:39:00;;;;;;;15.02;3.35;;;6.80;99.90;;;;;;5133914;27;20164;-53
2022/04/09 07:41:26;;;;;;;9.38;3.08;;;7.10;99.90;;;;;;5133747;27;20160;-52
2022/04/09 07:43:51;;;;;;;11.02;3.00;;;7.20;99.90;;;;;;5133819;27;20172;-53
2022/04/09 07:46:18;;;;;;;16.58;3.65;;;7.40;99.90;;;;;;5133751;27;20160;-51
2022/04/09 07:48:43;;;;;;;9.50;2.67;;;7.40;99.90;;;;;;5134056;27;20176;-51
2022/04/09 07:51:09;;;;;;;16.58;4.22;;;7.30;99.90;;;;;;5133979;27;20164;-51
2022/04/09 07:53:34;;;;;;;13.88;3.10;;;7.40;99.90;;;;;;5133643;27;20671;-51
2022/04/09 07:56:00;;;;;;;7.70;2.58;;;7.40;99.90;;;;;;5133574;27;20171;-51
2022/04/09 08:11:00;;;;;;;8.50;2.85;;;7.50;99.90;;;;;;5150924;27;20894;-54
2022/04/09 08:13:25;;;;;;;13.73;3.30;;;7.90;99.90;;;;;;5130465;28;20197;-55
2022/04/09 08:15:51;;;;;;;9.35;3.13;;;7.80;99.90;;;;;;5130204;28;20160;-55
2022/04/09 08:18:17;;;;;;;10.65;2.70;;;7.70;99.90;;;;;;5130146;28;20168;-49
2022/04/09 08:20:43;;;;;;;14.32;2.88;;;7.70;99.90;;;;;;5130123;27;20188;-49
2022/04/09 08:23:08;;;;;;;6.78;2.00;;;7.70;99.90;;;;;;5130413;28;20207;-49
2022/04/09 08:25:34;;;;;;;8.50;2.53;;;7.50;99.90;;;;;;5130017;28;20168;-50
2022/04/09 08:28:00;;;;;;;10.48;1.95;;;7.70;99.90;;;;;;5130035;28;20192;-50
2022/04/09 08:30:26;;;;;;;11.75;2.55;;;8.00;99.90;;;;;;5129985;27;20169;-49
2022/04/09 08:32:52;;;;;;;10.98;2.65;;;8.20;99.90;;;;;;5130011;28;20175;-50
2022/04/09 08:35:18;;;;;;;13.20;2.88;;;8.40;99.90;;;;;;5130093;27;20172;-49
2022/04/09 08:37:51;;;;;;;9.27;2.40;;;8.70;99.90;;;;;;5129789;27;20160;-50
2022/04/09 08:40:18;;;;;;;11.95;2.70;;;8.60;99.90;;;;;;5125438;27;20212;-51
2022/04/09 08:42:44;;;;;;;14.30;3.03;;;8.50;99.90;;;;;;5118383;28;20164;-49
2022/04/09 08:45:09;;;;;;;13.23;2.13;;;8.60;99.90;;;;;;5115903;28;20179;-52
2022/04/09 08:47:36;;;;;;;11.65;3.35;;;8.50;99.90;;;;;;5121886;28;20176;-54
2022/04/09 08:50:02;;;;;;;6.82;2.33;;;8.50;99.90;;;;;;5126859;27;20165;-54
2022/04/09 08:52:32;;;;;;;15.88;2.95;;;8.50;99.90;;;;;;5126139;28;20534;-53
2022/04/09 08:54:59;;;;;;;12.50;3.17;;;8.70;99.90;;;;;;5129508;27;20164;-55
2022/04/09 08:57:25;;;;;;;11.57;2.40;;;8.90;99.90;;;;;;5129501;27;20166;-52
2022/04/09 08:59:52;;;;;;;7.55;2.78;;;8.90;99.90;;;;;;5129116;27;20199;-49
2022/04/09 09:02:17;;;;;;;9.25;2.95;;;8.90;99.90;;;;;;5129330;27;20161;-50
2022/04/09 09:04:43;;;;;;;7.22;2.40;;;9.30;99.90;;;;;;5129538;28;20678;-50
2022/04/09 09:07:20;;;;;;;7.40;2.80;;;9.20;99.90;;;;;;5129595;28;20179;-50
2022/04/09 09:09:46;;;;;;;7.50;2.70;;;9.20;99.90;;;;;;5127853;27;20332;-49
2022/04/09 09:12:25;;;;;;;4.28;2.13;;;9.40;99.90;;;;;;5115539;28;20199;-52
2022/04/09 09:14:51;;;;;;;11.20;3.28;;;9.50;99.90;;;;;;5115424;28;20259;-51
2022/04/09 09:17:27;;;;;;;7.05;2.72;;;9.40;99.90;;;;;;5115530;28;20173;-50
2022/04/09 09:19:52;;;;;;;8.88;2.47;;;9.20;99.90;;;;;;5115511;28;20208;-51
2022/04/09 09:22:21;;;;;;;6.85;2.47;;;9.20;99.90;;;;;;5113924;28;20237;-49
2022/04/09 09:25:05;;;;;;;10.43;2.53;;;9.10;99.90;;;;;;5115183;28;20218;-54
2022/04/09 09:27:31;;;;;;;5.78;2.53;;;9.40;99.90;;;;;;5115371;28;20176;-53
2022/04/09 09:29:56;;;;;;;10.60;2.58;;;9.70;99.90;;;;;;5115123;27;20160;-54
2022/04/09 09:32:25;;;;;;;7.63;1.83;;;9.90;99.90;;;;;;5115320;28;20583;-54
2022/04/09 09:34:55;;;;;;;8.15;2.58;;;9.90;99.90;;;;;;5115270;28;20169;-55
2022/04/09 09:37:24;;;;;;;7.38;2.20;;;9.70;99.90;;;;;;5114993;28;20157;-54
2022/04/09 09:39:50;;;;;;;12.35;2.33;;;9.40;99.90;;;;;;5115165;28;20264;-53
2022/04/09 09:42:23;;;;;;;6.75;2.47;;;9.10;99.90;;;;;;5115097;28;20165;-54
2022/04/09 09:44:50;;;;;;;6.03;2.38;;;9.50;99.90;;;;;;5114815;28;20168;-51
2022/04/09 09:47:16;;;;;;;8.55;2.42;;;9.90;99.90;;;;;;5114988;28;20176;-55
2022/04/09 09:49:55;;;;;;;6.45;2.40;;;9.80;99.90;;;;;;5114996;28;20168;-52
2022/04/09 09:52:31;;;;;;;6.53;2.33;;;9.80;99.90;;;;;;5114927;28;20176;-54
2022/04/09 09:55:15;;;;;;;6.60;2.38;;;9.80;99.90;;;;;;5114666;28;20321;-53
2022/04/09 09:57:42;;;;;;;2.83;1.70;;;9.80;99.90;;;;;;5114971;28;20165;-54
2022/04/09 10:00:10;;;;;;;9.35;3.00;;;9.90;99.90;;;;;;5115070;28;20345;-55
2022/04/09 10:02:37;;;;;;;4.43;2.20;;;9.70;99.90;;;;;;5114569;28;20156;-53
2022/04/09 10:05:04;;;;;;;6.97;2.50;;;9.40;99.90;;;;;;5114369;28;20165;-54
2022/04/09 10:07:30;;;;;;;6.28;2.10;;;9.80;99.90;;;;;;5114351;28;20628;-55
2022/04/09 10:09:55;;;;;;;6.90;2.15;;;10.00;99.90;;;;;;5112768;28;20274;-56
2022/04/09 10:12:23;;;;;;;9.98;2.65;;;9.70;99.90;;;;;;5114278;28;20226;-55
2022/04/09 10:14:59;;;;;;;9.38;2.05;;;9.40;99.90;;;;;;5114190;28;20169;-55
2022/04/09 10:17:26;;;;;;;8.40;2.72;;;9.20;99.90;;;;;;5114132;28;20161;-55
2022/04/09 10:19:56;;;;;;;11.15;2.60;;;9.70;99.90;;;;;;5114010;28;20727;-55
2022/04/09 10:22:28;;;;;;;11.95;3.03;;;9.90;99.90;;;;;;5112997;28;20169;-54
2022/04/09 10:24:55;;;;;;;8.73;2.63;;;10.00;99.90;;;;;;5112775;28;20525;-55
2022/04/09 10:27:38;;;;;;;11.32;2.60;;;10.30;99.90;;;;;;5113981;28;20628;-56
2022/04/09 10:30:28;;;;;;;8.05;2.17;;;10.60;99.90;;;;;;5112635;28;20218;-55
2022/04/09 10:32:59;;;;;;;12.55;3.25;;;10.60;99.90;;;;;;5114148;28;20257;-55
2022/04/09 10:35:30;;;;;;;6.43;2.50;;;10.80;99.90;;;;;;5114051;28;20176;-56
2022/04/09 10:38:07;;;;;;;6.55;2.55;;;10.70;99.90;;;;;;5113747;28;20160;-51
2022/04/09 10:40:45;;;;;;;6.68;2.17;;;10.20;99.90;;;;;;5113458;28;20742;-53
2022/04/09 10:43:37;;;;;;;6.13;2.50;;;10.10;99.90;;;;;;5112586;28;20168;-55
2022/04/09 10:46:11;;;;;;;6.47;2.42;;;10.30;99.90;;;;;;5103102;28;20177;-55
2022/04/09 10:48:39;;;;;;;5.72;2.13;;;10.20;99.90;;;;;;5113834;28;20173;-55
2022/04/09 10:51:11;;;;;;;8.02;2.50;;;10.40;99.90;;;;;;5113754;28;20200;-55
2022/04/09 10:53:48;;;;;;;11.82;2.58;;;10.80;99.90;;;;;;5113747;28;20175;-55
2022/04/09 10:56:24;;;;;;;5.40;2.42;;;10.80;99.90;;;;;;5113709;27;20573;-54
2022/04/09 10:59:13;;;;;;;5.05;2.55;;;11.00;99.90;;;;;;5113259;28;20200;-55
2022/04/09 11:01:51;;;;;;;5.63;1.90;;;11.10;99.90;;;;;;5113906;28;20226;-54
2022/04/09 11:07:06;;;;;;;6.70;2.10;;;11.00;99.90;;;;;;5113358;28;20168;-56
2022/04/09 11:09:42;;;;;;;2.55;1.80;;;11.20;99.90;;;;;;5113109;28;20216;-55
2022/04/09 11:12:07;;;;;;;6.32;2.20;;;10.90;99.90;;;;;;5113159;28;20171;-55
2022/04/09 11:14:52;;;;;;;7.28;1.98;;;11.00;99.90;;;;;;5113057;28;20169;-55
2022/04/09 11:17:32;;;;;;;8.93;2.50;;;11.20;99.90;;;;;;5113245;28;20191;-53
2022/04/09 11:20:11;;;;;;;9.32;4.00;;;11.20;99.90;;;;;;5111725;28;20207;-54
2022/04/09 11:22:43;;;;;;;4.22;1.70;;;11.20;99.90;;;;;;5112895;28;20164;-54
2022/04/09 11:25:20;;;;;;;9.50;2.30;;;10.50;99.90;;;;;;5113389;28;20173;-54
2022/04/09 11:27:45;;;;;;;5.00;1.55;;;9.50;99.90;;;;;;5113167;28;20164;-53
2022/04/09 11:30:11;;;;;;;2.05;1.25;;;9.20;99.90;;;;;;5113149;28;20498;-55
2022/04/09 11:32:37;;;;;;;9.52;1.55;;;9.00;99.90;;;;;;5112896;28;20169;-55
2022/04/09 11:35:10;;;;;;;2.33;1.58;;;9.00;99.90;;;;;;5112976;28;20813;-55
2022/04/09 11:37:50;;;;;;;3.35;1.38;;;9.10;99.90;;;;;;5113077;28;20192;-54
2022/04/09 11:40:20;;;;;;;3.88;1.45;;;9.50;99.90;;;;;;5112734;28;20537;-52
2022/04/09 11:42:47;;;;;;;3.45;1.38;;;10.00;99.90;;;;;;5112964;28;20164;-55
2022/04/09 11:45:31;;;;;;;7.15;2.42;;;10.00;99.90;;;;;;5112698;28;20256;-50
2022/04/09 11:47:58;;;;;;;4.68;1.58;;;9.70;99.90;;;;;;5112835;28;20168;-54
2022/04/09 11:50:25;;;;;;;4.63;1.88;;;9.40;99.90;;;;;;5112701;28;20168;-55
2022/04/09 11:52:52;;;;;;;3.53;1.40;;;9.40;99.90;;;;;;5112997;28;20181;-54
2022/04/09 11:55:18;;;;;;;3.20;1.35;;;9.40;99.90;;;;;;5112675;28;20169;-52
2022/04/09 11:57:54;;;;;;;2.97;1.25;;;9.80;99.90;;;;;;5112596;28;20222;-54
2022/04/09 12:00:25;;;;;;;4.07;1.55;;;10.20;99.90;;;;;;5112667;28;20235;-54
2022/04/09 12:02:51;;;;;;;3.35;1.60;;;10.80;99.90;;;;;;5112457;28;20160;-54
2022/04/09 12:05:16;;;;;;;3.97;1.60;;;10.80;99.90;;;;;;5112487;28;20678;-53
2022/04/09 12:07:43;;;;;;;6.88;1.80;;;11.00;99.90;;;;;;5112670;28;20189;-54
2022/04/09 12:10:26;;;;;;;2.28;1.48;;;11.30;99.90;;;;;;5112588;28;20669;-50
2022/04/09 12:13:02;;;;;;;4.13;1.60;;;11.40;99.90;;;;;;5112616;28;20587;-53
2022/04/09 12:15:32;;;;;;;33.38;2.67;;;11.30;99.90;;;;;;5112249;28;20168;-52
2022/04/09 12:17:59;;;;;;;3.13;1.90;;;11.40;99.90;;;;;;5112541;28;20241;-54
2022/04/09 12:20:35;;;;;;;3.53;1.40;;;11.50;99.90;;;;;;5112509;28;20295;-54
2022/04/09 12:23:03;;;;;;;3.47;1.30;;;11.70;99.90;;;;;;5112235;28;20640;-54
2022/04/09 12:25:47;;;;;;;1.95;1.70;;;11.60;99.90;;;;;;5112191;28;20164;-54
2022/04/09 12:28:24;;;;;;;2.58;1.75;;;11.70;99.90;;;;;;5112726;28;20161;-50
2022/04/09 12:30:56;;;;;;;3.38;1.65;;;11.60;99.90;;;;;;5112707;28;20164;-54
2022/04/09 12:33:23;;;;;;;5.50;2.30;;;11.70;99.90;;;;;;5112378;28;20586;-56
2022/04/09 12:35:49;;;;;;;5.07;1.67;;;11.70;99.90;;;;;;5112299;28;20168;-55
2022/04/09 12:38:31;;;;;;;5.82;2.17;;;11.90;99.90;;;;;;5112377;28;20160;-56
2022/04/09 12:41:01;;;;;;;4.70;2.45;;;11.60;99.90;;;;;;5112073;28;20520;-55
2022/04/09 12:43:39;;;;;;;4.22;2.20;;;12.00;99.90;;;;;;5112281;28;20165;-55
2022/04/09 12:46:12;;;;;;;3.15;1.75;;;11.80;99.90;;;;;;5113980;28;20176;-55
2022/04/09 12:48:38;;;;;;;2.95;1.80;;;11.60;99.90;;;;;;5116255;28;20172;-55
2022/04/09 12:51:03;;;;;;;4.25;2.30;;;11.30;99.90;;;;;;5116117;28;20167;-55
2022/04/09 12:53:29;;;;;;;5.18;1.98;;;11.70;99.90;;;;;;5115792;28;20160;-56
2022/04/09 12:55:54;;;;;;;5.80;2.13;;;12.20;99.90;;;;;;5115807;28;20176;-56
2022/04/09 12:58:20;;;;;;;1.95;1.60;;;11.70;99.90;;;;;;5115403;28;20168;-54
2022/04/09 13:00:45;;;;;;;3.92;2.00;;;11.20;99.90;;;;;;5115299;28;20176;-55
2022/04/09 13:03:13;;;;;;;3.28;1.75;;;11.00;99.90;;;;;;5115914;28;20648;-55
2022/04/09 13:05:41;;;;;;;8.38;2.17;;;10.90;99.90;;;;;;5115812;28;20177;-55
2022/04/09 13:08:06;;;;;;;4.55;1.85;;;10.70;99.90;;;;;;5115746;28;20192;-55